sensor_id;sensor_type;location;lat;lon;timestamp;P1;durP1;ratioP1;P2;durP2;ratioP2
51660;SDS011;37741;49.748;8.490;2023-06-22T00:00:42;10.05;;;5.18;;
51660;SDS011;37741;49.748;8.490;2023-06-22T00:03:08;6.00;;;5.40;;
51660;SDS011;37741;49.748;8.490;2023-06-22T00:05:34;7.10;;;5.70;;
51660;SDS011;37741;49.748;8.490;2023-06-22T00:08:03;6.50;;;5.45;;
51660;SDS011;37741;49.748;8.490;2023-06-22T00:10:29;6.38;;;5.35;;
51660;SDS011;37741;49.748;8.490;2023-06-22T00:12:55;5.60;;;4.78;;
51660;SDS011;37741;49.748;8.490;2023-06-22T00:15:21;5.03;;;4.38;;
51660;SDS011;37741;49.748;8.490;2023-06-22T00:17:46;5.63;;;5.07;;
51660;SDS011;37741;49.748;8.490;2023-06-22T00:20:12;6.03;;;4.88;;
51660;SDS011;37741;49.748;8.490;2023-06-22T00:22:39;5.72;;;5.20;;
51660;SDS011;37741;49.748;8.490;2023-06-22T00:25:07;5.75;;;5.22;;
51660;SDS011;37741;49.748;8.490;2023-06-22T00:27:34;7.20;;;5.57;;
51660;SDS011;37741;49.748;8.490;2023-06-22T00:30:00;7.03;;;5.53;;
51660;SDS011;37741;49.748;8.490;2023-06-22T00:32:25;6.18;;;5.53;;
51660;SDS011;37741;49.748;8.490;2023-06-22T00:34:51;5.82;;;5.10;;
51660;SDS011;37741;49.748;8.490;2023-06-22T00:37:17;5.28;;;4.72;;
51660;SDS011;37741;49.748;8.490;2023-06-22T00:39:43;6.95;;;5.15;;
51660;SDS011;37741;49.748;8.490;2023-06-22T00:42:09;8.80;;;5.38;;
51660;SDS011;37741;49.748;8.490;2023-06-22T00:44:35;7.28;;;4.85;;
51660;SDS011;37741;49.748;8.490;2023-06-22T00:47:01;5.20;;;4.68;;
51660;SDS011;37741;49.748;8.490;2023-06-22T00:49:28;5.07;;;4.57;;
51660;SDS011;37741;49.748;8.490;2023-06-22T00:51:53;5.07;;;4.57;;
51660;SDS011;37741;49.748;8.490;2023-06-22T00:54:20;5.32;;;4.45;;
51660;SDS011;37741;49.748;8.490;2023-06-22T00:56:50;5.38;;;4.80;;
51660;SDS011;37741;49.748;8.490;2023-06-22T00:59:20;5.85;;;5.30;;
51660;SDS011;37741;49.748;8.490;2023-06-22T01:01:46;5.75;;;4.90;;
51660;SDS011;37741;49.748;8.490;2023-06-22T01:04:12;4.82;;;4.30;;
51660;SDS011;37741;49.748;8.490;2023-06-22T01:06:42;6.65;;;4.53;;
51660;SDS011;37741;49.748;8.490;2023-06-22T01:09:14;5.10;;;4.60;;
51660;SDS011;37741;49.748;8.490;2023-06-22T01:11:45;5.88;;;4.50;;
51660;SDS011;37741;49.748;8.490;2023-06-22T01:14:24;5.35;;;4.75;;
51660;SDS011;37741;49.748;8.490;2023-06-22T01:16:57;5.57;;;4.75;;
51660;SDS011;37741;49.748;8.490;2023-06-22T01:19:35;8.15;;;5.07;;
51660;SDS011;37741;49.748;8.490;2023-06-22T01:22:21;6.03;;;4.70;;
51660;SDS011;37741;49.748;8.490;2023-06-22T01:27:32;9.00;;;5.75;;
51660;SDS011;37741;49.748;8.490;2023-06-22T01:30:11;5.40;;;4.80;;
51660;SDS011;37741;49.748;8.490;2023-06-22T01:32:39;6.25;;;4.65;;
51660;SDS011;37741;49.748;8.490;2023-06-22T01:35:07;5.57;;;4.70;;
51660;SDS011;37741;49.748;8.490;2023-06-22T01:37:34;5.25;;;4.75;;
51660;SDS011;37741;49.748;8.490;2023-06-22T01:40:02;6.82;;;4.53;;
51660;SDS011;37741;49.748;8.490;2023-06-22T01:42:30;8.60;;;4.80;;
51660;SDS011;37741;49.748;8.490;2023-06-22T01:44:56;4.90;;;4.22;;
51660;SDS011;37741;49.748;8.490;2023-06-22T01:47:23;6.80;;;4.65;;
51660;SDS011;37741;49.748;8.490;2023-06-22T01:49:50;5.20;;;4.70;;
51660;SDS011;37741;49.748;8.490;2023-06-22T01:52:16;5.43;;;4.85;;
51660;SDS011;37741;49.748;8.490;2023-06-22T01:54:43;5.55;;;4.85;;
51660;SDS011;37741;49.748;8.490;2023-06-22T01:57:08;6.75;;;4.65;;
51660;SDS011;37741;49.748;8.490;2023-06-22T01:59:37;5.43;;;4.43;;
51660;SDS011;37741;49.748;8.490;2023-06-22T02:02:12;4.35;;;3.95;;
51660;SDS011;37741;49.748;8.490;2023-06-22T02:04:48;8.30;;;4.85;;
51660;SDS011;37741;49.748;8.490;2023-06-22T02:07:20;5.68;;;5.03;;
51660;SDS011;37741;49.748;8.490;2023-06-22T02:09:51;4.85;;;4.35;;
51660;SDS011;37741;49.748;8.490;2023-06-22T02:12:21;5.75;;;4.38;;
51660;SDS011;37741;49.748;8.490;2023-06-22T02:14:50;5.20;;;4.70;;
51660;SDS011;37741;49.748;8.490;2023-06-22T02:17:17;5.30;;;4.75;;
51660;SDS011;37741;49.748;8.490;2023-06-22T02:19:43;5.40;;;3.97;;
51660;SDS011;37741;49.748;8.490;2023-06-22T02:22:09;5.95;;;4.53;;
51660;SDS011;37741;49.748;8.490;2023-06-22T02:24:34;5.95;;;4.75;;
51660;SDS011;37741;49.748;8.490;2023-06-22T02:27:00;7.05;;;4.40;;
51660;SDS011;37741;49.748;8.490;2023-06-22T02:29:27;5.32;;;4.50;;
51660;SDS011;37741;49.748;8.490;2023-06-22T02:31:53;4.82;;;4.28;;
51660;SDS011;37741;49.748;8.490;2023-06-22T02:34:19;4.95;;;4.45;;
51660;SDS011;37741;49.748;8.490;2023-06-22T02:36:46;5.45;;;4.78;;
51660;SDS011;37741;49.748;8.490;2023-06-22T02:39:23;4.82;;;4.28;;
51660;SDS011;37741;49.748;8.490;2023-06-22T02:41:50;5.68;;;4.53;;
51660;SDS011;37741;49.748;8.490;2023-06-22T02:44:16;4.65;;;4.13;;
51660;SDS011;37741;49.748;8.490;2023-06-22T02:46:42;8.32;;;5.03;;
51660;SDS011;37741;49.748;8.490;2023-06-22T02:49:08;5.68;;;4.72;;
51660;SDS011;37741;49.748;8.490;2023-06-22T02:51:35;7.00;;;4.85;;
51660;SDS011;37741;49.748;8.490;2023-06-22T02:54:04;9.68;;;5.40;;
51660;SDS011;37741;49.748;8.490;2023-06-22T02:56:32;5.38;;;4.88;;
51660;SDS011;37741;49.748;8.490;2023-06-22T02:58:58;4.72;;;4.15;;
51660;SDS011;37741;49.748;8.490;2023-06-22T03:01:26;4.70;;;4.22;;
51660;SDS011;37741;49.748;8.490;2023-06-22T03:03:53;5.25;;;4.25;;
51660;SDS011;37741;49.748;8.490;2023-06-22T03:06:20;7.78;;;5.10;;
51660;SDS011;37741;49.748;8.490;2023-06-22T03:08:48;5.47;;;4.97;;
51660;SDS011;37741;49.748;8.490;2023-06-22T03:11:16;5.32;;;4.82;;
51660;SDS011;37741;49.748;8.490;2023-06-22T03:13:41;4.78;;;4.35;;
51660;SDS011;37741;49.748;8.490;2023-06-22T03:16:07;5.70;;;4.90;;
51660;SDS011;37741;49.748;8.490;2023-06-22T03:18:32;6.30;;;4.68;;
51660;SDS011;37741;49.748;8.490;2023-06-22T03:20:58;4.78;;;4.38;;
51660;SDS011;37741;49.748;8.490;2023-06-22T03:23:24;7.57;;;4.90;;
51660;SDS011;37741;49.748;8.490;2023-06-22T03:25:49;5.63;;;4.90;;
51660;SDS011;37741;49.748;8.490;2023-06-22T03:28:15;5.93;;;5.00;;
51660;SDS011;37741;49.748;8.490;2023-06-22T03:30:41;5.93;;;4.97;;
51660;SDS011;37741;49.748;8.490;2023-06-22T03:33:06;6.07;;;5.20;;
51660;SDS011;37741;49.748;8.490;2023-06-22T03:35:32;5.47;;;4.90;;
51660;SDS011;37741;49.748;8.490;2023-06-22T03:37:57;5.88;;;4.68;;
51660;SDS011;37741;49.748;8.490;2023-06-22T03:40:23;5.80;;;4.90;;
51660;SDS011;37741;49.748;8.490;2023-06-22T03:42:49;6.55;;;5.53;;
51660;SDS011;37741;49.748;8.490;2023-06-22T03:45:15;6.45;;;5.05;;
51660;SDS011;37741;49.748;8.490;2023-06-22T03:47:41;6.88;;;5.28;;
51660;SDS011;37741;49.748;8.490;2023-06-22T03:50:06;7.38;;;5.38;;
51660;SDS011;37741;49.748;8.490;2023-06-22T03:52:32;5.82;;;5.13;;
51660;SDS011;37741;49.748;8.490;2023-06-22T03:54:58;6.68;;;5.10;;
51660;SDS011;37741;49.748;8.490;2023-06-22T03:57:23;10.10;;;5.30;;
51660;SDS011;37741;49.748;8.490;2023-06-22T03:59:49;5.63;;;5.05;;
51660;SDS011;37741;49.748;8.490;2023-06-22T04:02:15;5.95;;;5.38;;
51660;SDS011;37741;49.748;8.490;2023-06-22T04:04:40;5.65;;;5.10;;
51660;SDS011;37741;49.748;8.490;2023-06-22T04:07:06;7.68;;;5.55;;
51660;SDS011;37741;49.748;8.490;2023-06-22T04:09:32;6.53;;;5.93;;
51660;SDS011;37741;49.748;8.490;2023-06-22T04:11:58;6.63;;;5.75;;
51660;SDS011;37741;49.748;8.490;2023-06-22T04:14:23;6.65;;;5.95;;
51660;SDS011;37741;49.748;8.490;2023-06-22T04:16:49;7.38;;;5.38;;
51660;SDS011;37741;49.748;8.490;2023-06-22T04:19:15;6.90;;;5.63;;
51660;SDS011;37741;49.748;8.490;2023-06-22T04:21:43;6.40;;;5.80;;
51660;SDS011;37741;49.748;8.490;2023-06-22T04:24:09;7.70;;;6.05;;
51660;SDS011;37741;49.748;8.490;2023-06-22T04:26:35;5.88;;;5.20;;
51660;SDS011;37741;49.748;8.490;2023-06-22T04:29:05;6.95;;;6.05;;
51660;SDS011;37741;49.748;8.490;2023-06-22T04:31:31;6.70;;;5.60;;
51660;SDS011;37741;49.748;8.490;2023-06-22T04:33:59;7.60;;;6.28;;
51660;SDS011;37741;49.748;8.490;2023-06-22T04:36:34;7.82;;;6.95;;
51660;SDS011;37741;49.748;8.490;2023-06-22T04:39:08;7.57;;;6.40;;
51660;SDS011;37741;49.748;8.490;2023-06-22T04:41:35;6.28;;;5.68;;
51660;SDS011;37741;49.748;8.490;2023-06-22T04:44:08;7.15;;;6.47;;
51660;SDS011;37741;49.748;8.490;2023-06-22T04:46:37;6.55;;;5.80;;
51660;SDS011;37741;49.748;8.490;2023-06-22T04:49:09;7.70;;;6.03;;
51660;SDS011;37741;49.748;8.490;2023-06-22T04:51:36;6.45;;;5.32;;
51660;SDS011;37741;49.748;8.490;2023-06-22T04:54:03;6.65;;;5.95;;
51660;SDS011;37741;49.748;8.490;2023-06-22T04:56:30;5.93;;;5.43;;
51660;SDS011;37741;49.748;8.490;2023-06-22T04:58:57;6.45;;;5.80;;
51660;SDS011;37741;49.748;8.490;2023-06-22T05:01:22;6.60;;;5.97;;
51660;SDS011;37741;49.748;8.490;2023-06-22T05:03:48;6.32;;;5.72;;
51660;SDS011;37741;49.748;8.490;2023-06-22T05:06:14;7.20;;;6.45;;
51660;SDS011;37741;49.748;8.490;2023-06-22T05:08:40;8.48;;;5.90;;
51660;SDS011;37741;49.748;8.490;2023-06-22T05:11:09;7.32;;;5.82;;
51660;SDS011;37741;49.748;8.490;2023-06-22T05:13:35;7.03;;;5.93;;
51660;SDS011;37741;49.748;8.490;2023-06-22T05:16:00;7.68;;;6.22;;
51660;SDS011;37741;49.748;8.490;2023-06-22T05:18:30;6.88;;;5.85;;
51660;SDS011;37741;49.748;8.490;2023-06-22T05:20:56;6.93;;;6.07;;
51660;SDS011;37741;49.748;8.490;2023-06-22T05:23:23;6.75;;;6.05;;
51660;SDS011;37741;49.748;8.490;2023-06-22T05:25:51;6.75;;;6.05;;
51660;SDS011;37741;49.748;8.490;2023-06-22T05:28:16;6.63;;;6.03;;
51660;SDS011;37741;49.748;8.490;2023-06-22T05:30:47;6.00;;;5.40;;
51660;SDS011;37741;49.748;8.490;2023-06-22T05:33:13;5.97;;;5.38;;
51660;SDS011;37741;49.748;8.490;2023-06-22T05:35:39;6.90;;;6.15;;
51660;SDS011;37741;49.748;8.490;2023-06-22T05:38:07;7.07;;;6.38;;
51660;SDS011;37741;49.748;8.490;2023-06-22T05:40:33;6.93;;;6.30;;
51660;SDS011;37741;49.748;8.490;2023-06-22T05:42:58;7.32;;;6.63;;
51660;SDS011;37741;49.748;8.490;2023-06-22T05:45:26;6.80;;;5.88;;
51660;SDS011;37741;49.748;8.490;2023-06-22T05:47:52;6.57;;;5.95;;
51660;SDS011;37741;49.748;8.490;2023-06-22T05:50:18;7.13;;;6.45;;
51660;SDS011;37741;49.748;8.490;2023-06-22T05:52:45;10.15;;;6.25;;
51660;SDS011;37741;49.748;8.490;2023-06-22T05:55:13;7.38;;;6.68;;
51660;SDS011;37741;49.748;8.490;2023-06-22T05:57:40;7.03;;;5.95;;
51660;SDS011;37741;49.748;8.490;2023-06-22T06:00:06;6.15;;;5.60;;
51660;SDS011;37741;49.748;8.490;2023-06-22T06:02:35;7.10;;;6.40;;
51660;SDS011;37741;49.748;8.490;2023-06-22T06:05:01;7.18;;;6.47;;
51660;SDS011;37741;49.748;8.490;2023-06-22T06:07:27;7.85;;;6.47;;
51660;SDS011;37741;49.748;8.490;2023-06-22T06:09:53;10.73;;;7.15;;
51660;SDS011;37741;49.748;8.490;2023-06-22T06:12:18;6.38;;;5.72;;
51660;SDS011;37741;49.748;8.490;2023-06-22T06:14:44;8.40;;;6.15;;
51660;SDS011;37741;49.748;8.490;2023-06-22T06:17:09;7.97;;;7.18;;
51660;SDS011;37741;49.748;8.490;2023-06-22T06:19:35;6.95;;;6.25;;
51660;SDS011;37741;49.748;8.490;2023-06-22T06:22:01;10.85;;;7.10;;
51660;SDS011;37741;49.748;8.490;2023-06-22T06:24:26;7.35;;;6.45;;
51660;SDS011;37741;49.748;8.490;2023-06-22T06:26:52;7.43;;;6.18;;
51660;SDS011;37741;49.748;8.490;2023-06-22T06:29:18;7.80;;;6.53;;
51660;SDS011;37741;49.748;8.490;2023-06-22T06:31:43;7.32;;;6.25;;
51660;SDS011;37741;49.748;8.490;2023-06-22T06:34:09;7.03;;;6.32;;
51660;SDS011;37741;49.748;8.490;2023-06-22T06:36:34;6.57;;;5.95;;
51660;SDS011;37741;49.748;8.490;2023-06-22T06:39:00;6.93;;;6.32;;
51660;SDS011;37741;49.748;8.490;2023-06-22T06:41:28;7.63;;;6.65;;
51660;SDS011;37741;49.748;8.490;2023-06-22T06:43:53;6.85;;;6.15;;
51660;SDS011;37741;49.748;8.490;2023-06-22T06:46:19;7.07;;;5.90;;
51660;SDS011;37741;49.748;8.490;2023-06-22T06:48:45;7.75;;;6.07;;
51660;SDS011;37741;49.748;8.490;2023-06-22T06:51:10;6.82;;;6.22;;
51660;SDS011;37741;49.748;8.490;2023-06-22T06:53:37;6.85;;;6.25;;
51660;SDS011;37741;49.748;8.490;2023-06-22T06:56:03;6.95;;;6.25;;
51660;SDS011;37741;49.748;8.490;2023-06-22T06:58:30;9.20;;;7.18;;
51660;SDS011;37741;49.748;8.490;2023-06-22T07:00:56;7.28;;;6.57;;
51660;SDS011;37741;49.748;8.490;2023-06-22T07:03:21;7.35;;;6.43;;
51660;SDS011;37741;49.748;8.490;2023-06-22T07:05:47;7.75;;;6.88;;
51660;SDS011;37741;49.748;8.490;2023-06-22T07:08:13;7.10;;;6.40;;
51660;SDS011;37741;49.748;8.490;2023-06-22T07:10:38;6.35;;;5.63;;
51660;SDS011;37741;49.748;8.490;2023-06-22T07:13:04;8.57;;;6.43;;
51660;SDS011;37741;49.748;8.490;2023-06-22T07:15:30;7.97;;;6.07;;
51660;SDS011;37741;49.748;8.490;2023-06-22T07:17:55;8.10;;;6.38;;
51660;SDS011;37741;49.748;8.490;2023-06-22T07:20:21;7.80;;;7.00;;
51660;SDS011;37741;49.748;8.490;2023-06-22T07:22:46;6.20;;;5.60;;
51660;SDS011;37741;49.748;8.490;2023-06-22T07:25:12;9.95;;;6.85;;
51660;SDS011;37741;49.748;8.490;2023-06-22T07:27:46;6.95;;;6.35;;
51660;SDS011;37741;49.748;8.490;2023-06-22T07:30:21;7.45;;;6.57;;
51660;SDS011;37741;49.748;8.490;2023-06-22T07:32:47;7.15;;;5.72;;
51660;SDS011;37741;49.748;8.490;2023-06-22T07:35:12;7.47;;;6.47;;
51660;SDS011;37741;49.748;8.490;2023-06-22T07:37:38;7.18;;;6.15;;
51660;SDS011;37741;49.748;8.490;2023-06-22T07:40:04;6.85;;;6.25;;
51660;SDS011;37741;49.748;8.490;2023-06-22T07:42:31;7.13;;;6.22;;
51660;SDS011;37741;49.748;8.490;2023-06-22T07:45:00;6.97;;;6.38;;
51660;SDS011;37741;49.748;8.490;2023-06-22T07:47:27;7.40;;;6.00;;
51660;SDS011;37741;49.748;8.490;2023-06-22T07:49:54;7.72;;;7.03;;
51660;SDS011;37741;49.748;8.490;2023-06-22T07:52:22;7.00;;;6.30;;
51660;SDS011;37741;49.748;8.490;2023-06-22T07:54:47;7.45;;;6.50;;
51660;SDS011;37741;49.748;8.490;2023-06-22T07:57:13;7.03;;;6.10;;
51660;SDS011;37741;49.748;8.490;2023-06-22T07:59:39;7.10;;;6.05;;
51660;SDS011;37741;49.748;8.490;2023-06-22T08:02:04;7.22;;;6.60;;
51660;SDS011;37741;49.748;8.490;2023-06-22T08:04:30;7.45;;;6.53;;
51660;SDS011;37741;49.748;8.490;2023-06-22T08:06:59;7.90;;;6.95;;
51660;SDS011;37741;49.748;8.490;2023-06-22T08:09:24;7.57;;;6.63;;
51660;SDS011;37741;49.748;8.490;2023-06-22T08:11:50;7.82;;;6.45;;
51660;SDS011;37741;49.748;8.490;2023-06-22T08:14:15;8.80;;;6.95;;
51660;SDS011;37741;49.748;8.490;2023-06-22T08:16:41;7.70;;;6.90;;
51660;SDS011;37741;49.748;8.490;2023-06-22T08:19:07;7.43;;;6.72;;
51660;SDS011;37741;49.748;8.490;2023-06-22T08:21:33;7.18;;;6.57;;
51660;SDS011;37741;49.748;8.490;2023-06-22T08:23:58;6.93;;;6.22;;
51660;SDS011;37741;49.748;8.490;2023-06-22T08:26:24;7.22;;;6.53;;
51660;SDS011;37741;49.748;8.490;2023-06-22T08:28:49;7.85;;;7.05;;
51660;SDS011;37741;49.748;8.490;2023-06-22T08:31:15;7.38;;;6.68;;
51660;SDS011;37741;49.748;8.490;2023-06-22T08:33:40;7.53;;;6.82;;
51660;SDS011;37741;49.748;8.490;2023-06-22T08:36:08;7.40;;;6.70;;
51660;SDS011;37741;49.748;8.490;2023-06-22T08:38:35;7.72;;;6.93;;
51660;SDS011;37741;49.748;8.490;2023-06-22T08:41:01;7.85;;;7.05;;
51660;SDS011;37741;49.748;8.490;2023-06-22T08:43:27;8.95;;;7.25;;
51660;SDS011;37741;49.748;8.490;2023-06-22T08:45:53;8.90;;;7.25;;
51660;SDS011;37741;49.748;8.490;2023-06-22T08:48:18;8.20;;;6.93;;
51660;SDS011;37741;49.748;8.490;2023-06-22T08:50:44;8.60;;;7.30;;
51660;SDS011;37741;49.748;8.490;2023-06-22T08:53:10;9.40;;;6.40;;
51660;SDS011;37741;49.748;8.490;2023-06-22T08:55:35;6.90;;;6.22;;
51660;SDS011;37741;49.748;8.490;2023-06-22T08:58:01;7.93;;;6.82;;
51660;SDS011;37741;49.748;8.490;2023-06-22T09:00:27;7.03;;;6.28;;
51660;SDS011;37741;49.748;8.490;2023-06-22T09:02:54;7.60;;;6.22;;
51660;SDS011;37741;49.748;8.490;2023-06-22T09:05:26;9.32;;;7.10;;
51660;SDS011;37741;49.748;8.490;2023-06-22T09:07:51;7.95;;;7.22;;
51660;SDS011;37741;49.748;8.490;2023-06-22T09:10:22;7.15;;;6.45;;
51660;SDS011;37741;49.748;8.490;2023-06-22T09:12:48;8.23;;;7.28;;
51660;SDS011;37741;49.748;8.490;2023-06-22T09:15:13;6.80;;;6.07;;
51660;SDS011;37741;49.748;8.490;2023-06-22T09:17:40;8.13;;;6.78;;
51660;SDS011;37741;49.748;8.490;2023-06-22T09:20:06;7.93;;;6.88;;
51660;SDS011;37741;49.748;8.490;2023-06-22T09:22:35;8.82;;;6.60;;
51660;SDS011;37741;49.748;8.490;2023-06-22T09:25:01;7.57;;;6.80;;
51660;SDS011;37741;49.748;8.490;2023-06-22T09:27:28;10.13;;;6.85;;
51660;SDS011;37741;49.748;8.490;2023-06-22T09:29:53;8.13;;;7.32;;
51660;SDS011;37741;49.748;8.490;2023-06-22T09:32:19;7.00;;;6.40;;
51660;SDS011;37741;49.748;8.490;2023-06-22T09:34:45;6.63;;;6.03;;
51660;SDS011;37741;49.748;8.490;2023-06-22T09:37:11;7.45;;;6.60;;
51660;SDS011;37741;49.748;8.490;2023-06-22T09:39:37;7.70;;;6.22;;
51660;SDS011;37741;49.748;8.490;2023-06-22T09:42:03;6.90;;;6.20;;
51660;SDS011;37741;49.748;8.490;2023-06-22T09:44:30;8.68;;;7.28;;
51660;SDS011;37741;49.748;8.490;2023-06-22T09:46:56;8.18;;;6.63;;
51660;SDS011;37741;49.748;8.490;2023-06-22T09:49:22;8.95;;;7.07;;
51660;SDS011;37741;49.748;8.490;2023-06-22T09:51:47;7.00;;;6.20;;
51660;SDS011;37741;49.748;8.490;2023-06-22T09:54:14;7.57;;;6.78;;
51660;SDS011;37741;49.748;8.490;2023-06-22T09:56:40;7.35;;;6.63;;
51660;SDS011;37741;49.748;8.490;2023-06-22T09:59:05;8.65;;;6.63;;
51660;SDS011;37741;49.748;8.490;2023-06-22T10:01:31;7.00;;;6.20;;
51660;SDS011;37741;49.748;8.490;2023-06-22T10:03:57;7.65;;;6.35;;
51660;SDS011;37741;49.748;8.490;2023-06-22T10:06:23;6.95;;;6.25;;
51660;SDS011;37741;49.748;8.490;2023-06-22T10:08:50;6.93;;;6.20;;
51660;SDS011;37741;49.748;8.490;2023-06-22T10:11:16;8.30;;;6.10;;
51660;SDS011;37741;49.748;8.490;2023-06-22T10:13:42;6.60;;;6.00;;
51660;SDS011;37741;49.748;8.490;2023-06-22T10:16:07;6.55;;;5.97;;
51660;SDS011;37741;49.748;8.490;2023-06-22T10:18:33;6.50;;;5.90;;
51660;SDS011;37741;49.748;8.490;2023-06-22T10:20:59;7.40;;;5.75;;
51660;SDS011;37741;49.748;8.490;2023-06-22T10:23:25;7.03;;;6.28;;
51660;SDS011;37741;49.748;8.490;2023-06-22T10:25:50;6.70;;;5.93;;
51660;SDS011;37741;49.748;8.490;2023-06-22T10:28:16;6.78;;;5.90;;
51660;SDS011;37741;49.748;8.490;2023-06-22T10:30:42;6.72;;;6.13;;
51660;SDS011;37741;49.748;8.490;2023-06-22T10:33:08;8.20;;;6.57;;
51660;SDS011;37741;49.748;8.490;2023-06-22T10:35:35;6.47;;;5.88;;
51660;SDS011;37741;49.748;8.490;2023-06-22T10:38:02;6.35;;;5.72;;
51660;SDS011;37741;49.748;8.490;2023-06-22T10:40:28;6.32;;;5.72;;
51660;SDS011;37741;49.748;8.490;2023-06-22T10:42:54;7.15;;;6.30;;
51660;SDS011;37741;49.748;8.490;2023-06-22T10:45:20;6.57;;;5.95;;
51660;SDS011;37741;49.748;8.490;2023-06-22T10:47:46;6.13;;;5.53;;
51660;SDS011;37741;49.748;8.490;2023-06-22T10:50:12;6.57;;;5.47;;
51660;SDS011;37741;49.748;8.490;2023-06-22T10:52:38;8.02;;;6.00;;
51660;SDS011;37741;49.748;8.490;2023-06-22T10:55:04;6.43;;;5.72;;
51660;SDS011;37741;49.748;8.490;2023-06-22T10:57:30;7.28;;;5.88;;
51660;SDS011;37741;49.748;8.490;2023-06-22T10:59:56;6.38;;;5.75;;
51660;SDS011;37741;49.748;8.490;2023-06-22T11:02:22;7.75;;;5.55;;
51660;SDS011;37741;49.748;8.490;2023-06-22T11:04:49;7.03;;;5.82;;
51660;SDS011;37741;49.748;8.490;2023-06-22T11:07:15;7.47;;;5.82;;
51660;SDS011;37741;49.748;8.490;2023-06-22T11:09:41;6.20;;;5.60;;
51660;SDS011;37741;49.748;8.490;2023-06-22T11:12:08;7.45;;;5.82;;
51660;SDS011;37741;49.748;8.490;2023-06-22T11:14:34;7.45;;;5.95;;
51660;SDS011;37741;49.748;8.490;2023-06-22T11:16:59;6.70;;;5.88;;
51660;SDS011;37741;49.748;8.490;2023-06-22T11:19:25;8.50;;;5.85;;
51660;SDS011;37741;49.748;8.490;2023-06-22T11:21:50;7.38;;;5.45;;
51660;SDS011;37741;49.748;8.490;2023-06-22T11:24:16;7.75;;;6.60;;
51660;SDS011;37741;49.748;8.490;2023-06-22T11:26:42;6.88;;;5.95;;
51660;SDS011;37741;49.748;8.490;2023-06-22T11:29:08;6.43;;;5.78;;
51660;SDS011;37741;49.748;8.490;2023-06-22T11:31:34;6.60;;;5.55;;
51660;SDS011;37741;49.748;8.490;2023-06-22T11:34:00;6.55;;;5.65;;
51660;SDS011;37741;49.748;8.490;2023-06-22T11:36:25;6.55;;;5.80;;
51660;SDS011;37741;49.748;8.490;2023-06-22T11:38:52;6.70;;;5.57;;
51660;SDS011;37741;49.748;8.490;2023-06-22T11:41:17;6.72;;;5.93;;
51660;SDS011;37741;49.748;8.490;2023-06-22T11:43:44;6.63;;;5.80;;
51660;SDS011;37741;49.748;8.490;2023-06-22T11:46:10;6.70;;;5.80;;
51660;SDS011;37741;49.748;8.490;2023-06-22T11:48:36;8.48;;;5.68;;
51660;SDS011;37741;49.748;8.490;2023-06-22T11:51:02;7.82;;;6.28;;
51660;SDS011;37741;49.748;8.490;2023-06-22T11:53:40;6.03;;;5.32;;
51660;SDS011;37741;49.748;8.490;2023-06-22T11:56:06;5.75;;;5.10;;
51660;SDS011;37741;49.748;8.490;2023-06-22T11:58:34;6.68;;;5.35;;
51660;SDS011;37741;49.748;8.490;2023-06-22T12:01:00;6.45;;;5.85;;
51660;SDS011;37741;49.748;8.490;2023-06-22T12:03:25;8.57;;;5.35;;
51660;SDS011;37741;49.748;8.490;2023-06-22T12:05:51;6.43;;;5.78;;
51660;SDS011;37741;49.748;8.490;2023-06-22T12:08:17;6.63;;;5.90;;
51660;SDS011;37741;49.748;8.490;2023-06-22T12:10:43;6.38;;;5.47;;
51660;SDS011;37741;49.748;8.490;2023-06-22T12:13:09;7.03;;;5.50;;
51660;SDS011;37741;49.748;8.490;2023-06-22T12:15:43;7.13;;;5.15;;
51660;SDS011;37741;49.748;8.490;2023-06-22T12:18:08;7.07;;;4.90;;
51660;SDS011;37741;49.748;8.490;2023-06-22T12:20:34;7.93;;;5.47;;
51660;SDS011;37741;49.748;8.490;2023-06-22T12:23:02;6.68;;;5.30;;
51660;SDS011;37741;49.748;8.490;2023-06-22T12:25:28;6.72;;;5.45;;
51660;SDS011;37741;49.748;8.490;2023-06-22T12:27:54;7.07;;;5.43;;
51660;SDS011;37741;49.748;8.490;2023-06-22T12:30:20;6.85;;;4.90;;
51660;SDS011;37741;49.748;8.490;2023-06-22T12:32:45;12.18;;;5.30;;
51660;SDS011;37741;49.748;8.490;2023-06-22T12:35:11;7.38;;;5.53;;
51660;SDS011;37741;49.748;8.490;2023-06-22T12:37:40;8.85;;;5.13;;
51660;SDS011;37741;49.748;8.490;2023-06-22T12:40:07;7.63;;;5.20;;
51660;SDS011;37741;49.748;8.490;2023-06-22T12:42:33;8.35;;;5.20;;
51660;SDS011;37741;49.748;8.490;2023-06-22T12:44:58;8.43;;;5.88;;
51660;SDS011;37741;49.748;8.490;2023-06-22T12:47:24;6.32;;;4.95;;
51660;SDS011;37741;49.748;8.490;2023-06-22T12:49:50;8.32;;;4.85;;
51660;SDS011;37741;49.748;8.490;2023-06-22T12:52:15;9.45;;;5.10;;
51660;SDS011;37741;49.748;8.490;2023-06-22T12:54:41;9.27;;;4.90;;
51660;SDS011;37741;49.748;8.490;2023-06-22T12:57:07;6.57;;;4.78;;
51660;SDS011;37741;49.748;8.490;2023-06-22T12:59:32;6.95;;;4.50;;
51660;SDS011;37741;49.748;8.490;2023-06-22T13:01:58;7.45;;;5.10;;
51660;SDS011;37741;49.748;8.490;2023-06-22T13:04:23;7.72;;;4.88;;
51660;SDS011;37741;49.748;8.490;2023-06-22T13:06:49;10.13;;;5.35;;
51660;SDS011;37741;49.748;8.490;2023-06-22T13:09:15;7.30;;;4.95;;
51660;SDS011;37741;49.748;8.490;2023-06-22T13:11:42;7.30;;;4.88;;
51660;SDS011;37741;49.748;8.490;2023-06-22T13:14:08;7.45;;;4.65;;
51660;SDS011;37741;49.748;8.490;2023-06-22T13:16:34;8.05;;;5.10;;
51660;SDS011;37741;49.748;8.490;2023-06-22T13:19:01;11.18;;;5.50;;
51660;SDS011;37741;49.748;8.490;2023-06-22T13:21:27;8.35;;;5.22;;
51660;SDS011;37741;49.748;8.490;2023-06-22T13:23:53;11.23;;;5.32;;
51660;SDS011;37741;49.748;8.490;2023-06-22T13:26:19;11.48;;;5.20;;
51660;SDS011;37741;49.748;8.490;2023-06-22T13:28:45;8.63;;;4.75;;
51660;SDS011;37741;49.748;8.490;2023-06-22T13:31:11;10.88;;;4.68;;
51660;SDS011;37741;49.748;8.490;2023-06-22T13:33:37;8.05;;;4.80;;
51660;SDS011;37741;49.748;8.490;2023-06-22T13:36:03;11.35;;;5.35;;
51660;SDS011;37741;49.748;8.490;2023-06-22T13:38:31;24.08;;;6.07;;
51660;SDS011;37741;49.748;8.490;2023-06-22T13:40:57;14.23;;;4.75;;
51660;SDS011;37741;49.748;8.490;2023-06-22T13:43:24;15.98;;;5.82;;
51660;SDS011;37741;49.748;8.490;2023-06-22T13:45:51;6.57;;;4.50;;
51660;SDS011;37741;49.748;8.490;2023-06-22T13:48:17;9.60;;;4.78;;
51660;SDS011;37741;49.748;8.490;2023-06-22T13:50:43;8.95;;;4.80;;
51660;SDS011;37741;49.748;8.490;2023-06-22T13:53:08;7.05;;;4.55;;
51660;SDS011;37741;49.748;8.490;2023-06-22T13:55:34;8.00;;;5.10;;
51660;SDS011;37741;49.748;8.490;2023-06-22T13:58:00;16.98;;;5.03;;
51660;SDS011;37741;49.748;8.490;2023-06-22T14:00:25;9.55;;;4.93;;
51660;SDS011;37741;49.748;8.490;2023-06-22T14:02:52;8.43;;;4.78;;
51660;SDS011;37741;49.748;8.490;2023-06-22T14:05:18;8.98;;;4.50;;
51660;SDS011;37741;49.748;8.490;2023-06-22T14:07:45;10.55;;;4.38;;
51660;SDS011;37741;49.748;8.490;2023-06-22T14:10:10;8.68;;;4.30;;
51660;SDS011;37741;49.748;8.490;2023-06-22T14:12:36;8.15;;;5.05;;
51660;SDS011;37741;49.748;8.490;2023-06-22T14:15:02;7.45;;;4.75;;
51660;SDS011;37741;49.748;8.490;2023-06-22T14:17:28;8.55;;;4.65;;
51660;SDS011;37741;49.748;8.490;2023-06-22T14:19:53;9.70;;;4.78;;
51660;SDS011;37741;49.748;8.490;2023-06-22T14:22:20;8.13;;;4.82;;
51660;SDS011;37741;49.748;8.490;2023-06-22T14:24:46;9.68;;;5.07;;
51660;SDS011;37741;49.748;8.490;2023-06-22T14:27:12;8.77;;;5.13;;
51660;SDS011;37741;49.748;8.490;2023-06-22T14:29:37;10.52;;;5.13;;
51660;SDS011;37741;49.748;8.490;2023-06-22T14:32:03;9.02;;;4.95;;
51660;SDS011;37741;49.748;8.490;2023-06-22T14:34:31;9.45;;;4.72;;
51660;SDS011;37741;49.748;8.490;2023-06-22T14:36:57;7.65;;;4.55;;
51660;SDS011;37741;49.748;8.490;2023-06-22T14:39:22;6.28;;;4.65;;
51660;SDS011;37741;49.748;8.490;2023-06-22T14:41:48;8.38;;;4.63;;
51660;SDS011;37741;49.748;8.490;2023-06-22T14:44:14;9.68;;;4.70;;
51660;SDS011;37741;49.748;8.490;2023-06-22T14:46:40;11.73;;;4.70;;